sensor_id;sensor_type;location;lat;lon;timestamp;P1;durP1;ratioP1;P2;durP2;ratioP2
11653;SDS011;5883;48.818;9.114;2023-06-14T00:00:09;5.60;;;3.15;;
11653;SDS011;5883;48.818;9.114;2023-06-14T00:02:56;4.50;;;3.17;;
11653;SDS011;5883;48.818;9.114;2023-06-14T00:05:42;8.35;;;3.20;;
11653;SDS011;5883;48.818;9.114;2023-06-14T00:08:27;5.15;;;3.45;;
11653;SDS011;5883;48.818;9.114;2023-06-14T00:11:13;4.70;;;3.00;;
11653;SDS011;5883;48.818;9.114;2023-06-14T00:13:58;4.30;;;3.10;;
11653;SDS011;5883;48.818;9.114;2023-06-14T00:16:44;3.25;;;2.92;;
11653;SDS011;5883;48.818;9.114;2023-06-14T00:19:29;5.70;;;3.10;;
11653;SDS011;5883;48.818;9.114;2023-06-14T00:22:16;5.18;;;3.70;;
11653;SDS011;5883;48.818;9.114;2023-06-14T00:25:01;4.30;;;3.22;;
11653;SDS011;5883;48.818;9.114;2023-06-14T00:27:48;4.68;;;2.72;;
11653;SDS011;5883;48.818;9.114;2023-06-14T00:30:33;6.80;;;3.50;;
11653;SDS011;5883;48.818;9.114;2023-06-14T00:33:18;4.82;;;3.40;;
11653;SDS011;5883;48.818;9.114;2023-06-14T00:36:03;7.10;;;3.70;;
11653;SDS011;5883;48.818;9.114;2023-06-14T00:38:48;4.85;;;3.65;;
11653;SDS011;5883;48.818;9.114;2023-06-14T00:41:33;5.13;;;3.53;;
11653;SDS011;5883;48.818;9.114;2023-06-14T00:44:19;4.57;;;2.90;;
11653;SDS011;5883;48.818;9.114;2023-06-14T00:47:05;8.70;;;3.70;;
11653;SDS011;5883;48.818;9.114;2023-06-14T00:49:50;4.57;;;3.25;;
11653;SDS011;5883;48.818;9.114;2023-06-14T00:52:35;4.28;;;3.33;;
11653;SDS011;5883;48.818;9.114;2023-06-14T00:55:21;3.88;;;3.10;;
11653;SDS011;5883;48.818;9.114;2023-06-14T00:58:06;5.05;;;3.10;;
11653;SDS011;5883;48.818;9.114;2023-06-14T01:00:53;4.57;;;3.53;;
11653;SDS011;5883;48.818;9.114;2023-06-14T01:03:38;4.38;;;3.05;;
11653;SDS011;5883;48.818;9.114;2023-06-14T01:06:27;5.82;;;3.13;;
11653;SDS011;5883;48.818;9.114;2023-06-14T01:09:15;4.10;;;3.05;;
11653;SDS011;5883;48.818;9.114;2023-06-14T01:12:03;5.78;;;3.13;;
11653;SDS011;5883;48.818;9.114;2023-06-14T01:14:50;2.75;;;2.55;;
11653;SDS011;5883;48.818;9.114;2023-06-14T01:17:40;3.92;;;2.78;;
11653;SDS011;5883;48.818;9.114;2023-06-14T01:20:28;4.18;;;3.13;;
11653;SDS011;5883;48.818;9.114;2023-06-14T01:23:17;4.22;;;3.22;;
11653;SDS011;5883;48.818;9.114;2023-06-14T01:26:02;6.30;;;3.45;;
11653;SDS011;5883;48.818;9.114;2023-06-14T01:28:48;6.15;;;3.30;;
11653;SDS011;5883;48.818;9.114;2023-06-14T01:31:34;4.70;;;2.90;;
11653;SDS011;5883;48.818;9.114;2023-06-14T01:34:24;5.55;;;3.08;;
11653;SDS011;5883;48.818;9.114;2023-06-14T01:37:10;6.78;;;3.63;;
11653;SDS011;5883;48.818;9.114;2023-06-14T01:39:58;5.53;;;3.33;;
11653;SDS011;5883;48.818;9.114;2023-06-14T01:42:44;5.32;;;3.63;;
11653;SDS011;5883;48.818;9.114;2023-06-14T01:45:30;4.97;;;3.10;;
11653;SDS011;5883;48.818;9.114;2023-06-14T01:48:15;3.55;;;3.05;;
11653;SDS011;5883;48.818;9.114;2023-06-14T01:51:00;3.92;;;3.25;;
11653;SDS011;5883;48.818;9.114;2023-06-14T01:53:45;5.50;;;3.10;;
11653;SDS011;5883;48.818;9.114;2023-06-14T01:56:31;5.25;;;3.00;;
11653;SDS011;5883;48.818;9.114;2023-06-14T01:59:17;4.72;;;3.42;;
11653;SDS011;5883;48.818;9.114;2023-06-14T02:02:02;4.03;;;3.03;;
11653;SDS011;5883;48.818;9.114;2023-06-14T02:04:47;4.30;;;3.38;;
11653;SDS011;5883;48.818;9.114;2023-06-14T02:07:33;4.38;;;3.00;;
11653;SDS011;5883;48.818;9.114;2023-06-14T02:10:17;3.78;;;3.05;;
11653;SDS011;5883;48.818;9.114;2023-06-14T02:13:04;9.25;;;3.47;;
11653;SDS011;5883;48.818;9.114;2023-06-14T02:15:49;4.65;;;3.28;;
11653;SDS011;5883;48.818;9.114;2023-06-14T02:18:38;3.42;;;3.00;;
11653;SDS011;5883;48.818;9.114;2023-06-14T02:21:23;5.95;;;3.55;;
11653;SDS011;5883;48.818;9.114;2023-06-14T02:24:08;6.93;;;2.92;;
11653;SDS011;5883;48.818;9.114;2023-06-14T02:26:53;4.32;;;3.47;;
11653;SDS011;5883;48.818;9.114;2023-06-14T02:29:40;4.97;;;3.67;;
11653;SDS011;5883;48.818;9.114;2023-06-14T02:32:25;4.65;;;4.18;;
11653;SDS011;5883;48.818;9.114;2023-06-14T02:35:11;5.35;;;4.32;;
11653;SDS011;5883;48.818;9.114;2023-06-14T02:37:57;4.88;;;3.95;;
11653;SDS011;5883;48.818;9.114;2023-06-14T02:40:42;4.63;;;3.70;;
11653;SDS011;5883;48.818;9.114;2023-06-14T02:43:30;4.40;;;3.45;;
11653;SDS011;5883;48.818;9.114;2023-06-14T02:46:16;4.72;;;3.55;;
11653;SDS011;5883;48.818;9.114;2023-06-14T02:49:01;5.63;;;3.28;;
11653;SDS011;5883;48.818;9.114;2023-06-14T02:51:46;4.35;;;3.53;;
11653;SDS011;5883;48.818;9.114;2023-06-14T02:54:32;5.60;;;3.33;;
11653;SDS011;5883;48.818;9.114;2023-06-14T02:57:17;5.18;;;3.50;;
11653;SDS011;5883;48.818;9.114;2023-06-14T03:00:02;5.10;;;3.20;;
11653;SDS011;5883;48.818;9.114;2023-06-14T03:02:49;3.97;;;3.20;;
11653;SDS011;5883;48.818;9.114;2023-06-14T03:05:35;4.25;;;3.30;;
11653;SDS011;5883;48.818;9.114;2023-06-14T03:08:20;5.03;;;3.25;;
11653;SDS011;5883;48.818;9.114;2023-06-14T03:11:10;4.05;;;3.33;;
11653;SDS011;5883;48.818;9.114;2023-06-14T03:13:56;5.45;;;3.97;;
11653;SDS011;5883;48.818;9.114;2023-06-14T03:16:44;6.38;;;3.60;;
11653;SDS011;5883;48.818;9.114;2023-06-14T03:19:30;5.53;;;3.90;;
11653;SDS011;5883;48.818;9.114;2023-06-14T03:22:16;6.65;;;4.07;;
11653;SDS011;5883;48.818;9.114;2023-06-14T03:25:00;4.05;;;3.40;;
11653;SDS011;5883;48.818;9.114;2023-06-14T03:27:47;4.13;;;3.30;;
11653;SDS011;5883;48.818;9.114;2023-06-14T03:30:32;5.70;;;3.92;;
11653;SDS011;5883;48.818;9.114;2023-06-14T03:33:18;4.95;;;3.75;;
11653;SDS011;5883;48.818;9.114;2023-06-14T03:36:06;4.45;;;3.53;;
11653;SDS011;5883;48.818;9.114;2023-06-14T03:38:51;4.97;;;3.63;;
11653;SDS011;5883;48.818;9.114;2023-06-14T03:41:36;6.25;;;3.53;;
11653;SDS011;5883;48.818;9.114;2023-06-14T03:44:21;5.60;;;3.72;;
11653;SDS011;5883;48.818;9.114;2023-06-14T03:47:06;4.65;;;3.45;;
11653;SDS011;5883;48.818;9.114;2023-06-14T03:49:52;5.75;;;3.80;;
11653;SDS011;5883;48.818;9.114;2023-06-14T03:52:38;4.57;;;3.70;;
11653;SDS011;5883;48.818;9.114;2023-06-14T03:55:24;5.72;;;3.85;;
11653;SDS011;5883;48.818;9.114;2023-06-14T03:58:14;5.75;;;3.70;;
11653;SDS011;5883;48.818;9.114;2023-06-14T04:00:59;4.78;;;3.80;;
11653;SDS011;5883;48.818;9.114;2023-06-14T04:03:45;4.20;;;3.40;;
11653;SDS011;5883;48.818;9.114;2023-06-14T04:06:30;7.38;;;3.63;;
11653;SDS011;5883;48.818;9.114;2023-06-14T04:09:18;7.13;;;3.55;;
11653;SDS011;5883;48.818;9.114;2023-06-14T04:12:03;6.05;;;3.55;;
11653;SDS011;5883;48.818;9.114;2023-06-14T04:14:48;6.85;;;3.72;;
11653;SDS011;5883;48.818;9.114;2023-06-14T04:17:33;4.60;;;3.35;;
11653;SDS011;5883;48.818;9.114;2023-06-14T04:20:18;5.22;;;3.70;;
11653;SDS011;5883;48.818;9.114;2023-06-14T04:23:12;8.93;;;3.70;;
11653;SDS011;5883;48.818;9.114;2023-06-14T04:25:59;4.88;;;3.88;;
11653;SDS011;5883;48.818;9.114;2023-06-14T04:28:46;5.78;;;3.38;;
11653;SDS011;5883;48.818;9.114;2023-06-14T04:31:31;3.92;;;3.47;;
11653;SDS011;5883;48.818;9.114;2023-06-14T04:34:17;6.15;;;3.85;;
11653;SDS011;5883;48.818;9.114;2023-06-14T04:37:02;6.28;;;4.15;;
11653;SDS011;5883;48.818;9.114;2023-06-14T04:39:48;6.13;;;4.22;;
11653;SDS011;5883;48.818;9.114;2023-06-14T04:42:35;7.30;;;3.90;;
11653;SDS011;5883;48.818;9.114;2023-06-14T04:45:20;7.15;;;4.10;;
11653;SDS011;5883;48.818;9.114;2023-06-14T04:48:05;6.18;;;4.35;;
11653;SDS011;5883;48.818;9.114;2023-06-14T04:50:50;5.90;;;4.07;;
11653;SDS011;5883;48.818;9.114;2023-06-14T04:53:37;4.43;;;3.80;;
11653;SDS011;5883;48.818;9.114;2023-06-14T04:56:22;5.22;;;3.80;;
11653;SDS011;5883;48.818;9.114;2023-06-14T04:59:08;6.05;;;4.30;;
11653;SDS011;5883;48.818;9.114;2023-06-14T05:01:55;5.80;;;3.92;;
11653;SDS011;5883;48.818;9.114;2023-06-14T05:04:40;4.28;;;3.88;;
11653;SDS011;5883;48.818;9.114;2023-06-14T05:07:26;6.78;;;4.15;;
11653;SDS011;5883;48.818;9.114;2023-06-14T05:10:11;8.38;;;4.07;;
11653;SDS011;5883;48.818;9.114;2023-06-14T05:12:56;7.45;;;4.07;;
11653;SDS011;5883;48.818;9.114;2023-06-14T05:15:42;6.97;;;3.85;;
11653;SDS011;5883;48.818;9.114;2023-06-14T05:18:27;6.70;;;4.18;;
11653;SDS011;5883;48.818;9.114;2023-06-14T05:21:12;9.27;;;4.50;;
11653;SDS011;5883;48.818;9.114;2023-06-14T05:24:00;12.30;;;3.53;;
11653;SDS011;5883;48.818;9.114;2023-06-14T05:26:45;4.75;;;3.45;;
11653;SDS011;5883;48.818;9.114;2023-06-14T05:29:31;7.22;;;4.20;;
11653;SDS011;5883;48.818;9.114;2023-06-14T05:32:17;9.55;;;4.28;;
11653;SDS011;5883;48.818;9.114;2023-06-14T05:35:02;12.95;;;4.55;;
11653;SDS011;5883;48.818;9.114;2023-06-14T05:37:48;7.85;;;3.95;;
11653;SDS011;5883;48.818;9.114;2023-06-14T05:40:33;10.98;;;3.97;;
11653;SDS011;5883;48.818;9.114;2023-06-14T05:43:18;12.50;;;3.70;;
11653;SDS011;5883;48.818;9.114;2023-06-14T05:46:03;12.98;;;3.72;;
11653;SDS011;5883;48.818;9.114;2023-06-14T05:48:49;7.80;;;3.92;;
11653;SDS011;5883;48.818;9.114;2023-06-14T05:51:35;4.63;;;3.45;;
11653;SDS011;5883;48.818;9.114;2023-06-14T05:54:20;8.18;;;3.92;;
11653;SDS011;5883;48.818;9.114;2023-06-14T05:57:05;6.30;;;3.15;;
11653;SDS011;5883;48.818;9.114;2023-06-14T05:59:50;3.53;;;3.22;;
11653;SDS011;5883;48.818;9.114;2023-06-14T06:02:35;5.88;;;3.45;;
11653;SDS011;5883;48.818;9.114;2023-06-14T06:05:24;9.60;;;3.60;;
11653;SDS011;5883;48.818;9.114;2023-06-14T06:08:10;5.30;;;3.00;;
11653;SDS011;5883;48.818;9.114;2023-06-14T06:10:55;6.68;;;3.10;;
11653;SDS011;5883;48.818;9.114;2023-06-14T06:13:40;8.05;;;3.05;;
11653;SDS011;5883;48.818;9.114;2023-06-14T06:16:25;5.28;;;3.53;;
11653;SDS011;5883;48.818;9.114;2023-06-14T06:19:10;7.65;;;3.50;;
11653;SDS011;5883;48.818;9.114;2023-06-14T06:21:56;7.03;;;3.88;;
11653;SDS011;5883;48.818;9.114;2023-06-14T06:24:41;9.52;;;3.25;;
11653;SDS011;5883;48.818;9.114;2023-06-14T06:27:26;6.88;;;3.40;;
11653;SDS011;5883;48.818;9.114;2023-06-14T06:30:12;4.13;;;3.53;;
11653;SDS011;5883;48.818;9.114;2023-06-14T06:32:57;3.58;;;2.60;;
11653;SDS011;5883;48.818;9.114;2023-06-14T06:35:43;3.67;;;3.13;;
11653;SDS011;5883;48.818;9.114;2023-06-14T06:38:29;7.10;;;3.10;;
11653;SDS011;5883;48.818;9.114;2023-06-14T06:41:14;6.72;;;3.03;;
11653;SDS011;5883;48.818;9.114;2023-06-14T06:43:59;6.07;;;2.67;;
11653;SDS011;5883;48.818;9.114;2023-06-14T06:46:44;8.02;;;3.25;;
11653;SDS011;5883;48.818;9.114;2023-06-14T06:49:29;9.07;;;3.40;;
11653;SDS011;5883;48.818;9.114;2023-06-14T06:52:14;8.15;;;3.50;;
11653;SDS011;5883;48.818;9.114;2023-06-14T06:55:00;3.95;;;3.00;;
11653;SDS011;5883;48.818;9.114;2023-06-14T06:57:45;3.97;;;3.08;;
11653;SDS011;5883;48.818;9.114;2023-06-14T07:00:30;5.70;;;3.17;;
11653;SDS011;5883;48.818;9.114;2023-06-14T07:03:15;7.00;;;3.45;;
11653;SDS011;5883;48.818;9.114;2023-06-14T07:06:01;6.57;;;2.95;;
11653;SDS011;5883;48.818;9.114;2023-06-14T07:08:46;5.45;;;2.90;;
11653;SDS011;5883;48.818;9.114;2023-06-14T07:11:33;5.00;;;3.03;;
11653;SDS011;5883;48.818;9.114;2023-06-14T07:14:18;6.57;;;2.50;;
11653;SDS011;5883;48.818;9.114;2023-06-14T07:17:07;8.05;;;3.10;;
11653;SDS011;5883;48.818;9.114;2023-06-14T07:19:51;6.30;;;3.60;;
11653;SDS011;5883;48.818;9.114;2023-06-14T07:22:36;4.05;;;2.45;;
11653;SDS011;5883;48.818;9.114;2023-06-14T07:25:21;5.40;;;3.08;;
11653;SDS011;5883;48.818;9.114;2023-06-14T07:28:07;8.30;;;2.65;;
11653;SDS011;5883;48.818;9.114;2023-06-14T07:30:53;5.82;;;2.90;;
11653;SDS011;5883;48.818;9.114;2023-06-14T07:33:38;5.93;;;2.60;;
11653;SDS011;5883;48.818;9.114;2023-06-14T07:36:23;7.95;;;3.00;;
11653;SDS011;5883;48.818;9.114;2023-06-14T07:39:08;6.97;;;2.75;;
11653;SDS011;5883;48.818;9.114;2023-06-14T07:41:53;7.57;;;2.85;;
11653;SDS011;5883;48.818;9.114;2023-06-14T07:44:40;3.25;;;2.42;;
11653;SDS011;5883;48.818;9.114;2023-06-14T07:47:25;4.82;;;2.50;;
11653;SDS011;5883;48.818;9.114;2023-06-14T07:50:10;2.88;;;2.35;;
11653;SDS011;5883;48.818;9.114;2023-06-14T07:52:56;6.22;;;2.90;;
11653;SDS011;5883;48.818;9.114;2023-06-14T07:55:41;5.32;;;2.67;;
11653;SDS011;5883;48.818;9.114;2023-06-14T07:58:27;4.25;;;2.50;;
11653;SDS011;5883;48.818;9.114;2023-06-14T08:01:13;4.53;;;2.70;;
11653;SDS011;5883;48.818;9.114;2023-06-14T08:03:59;7.00;;;2.60;;
11653;SDS011;5883;48.818;9.114;2023-06-14T08:06:44;3.13;;;2.40;;
11653;SDS011;5883;48.818;9.114;2023-06-14T08:09:29;9.85;;;2.95;;
11653;SDS011;5883;48.818;9.114;2023-06-14T08:12:14;4.45;;;2.40;;
11653;SDS011;5883;48.818;9.114;2023-06-14T08:15:00;4.50;;;2.88;;
11653;SDS011;5883;48.818;9.114;2023-06-14T08:17:46;4.90;;;2.85;;
11653;SDS011;5883;48.818;9.114;2023-06-14T08:20:31;6.13;;;2.38;;
11653;SDS011;5883;48.818;9.114;2023-06-14T08:23:18;4.85;;;2.33;;
11653;SDS011;5883;48.818;9.114;2023-06-14T08:26:04;4.90;;;2.58;;
11653;SDS011;5883;48.818;9.114;2023-06-14T08:28:49;3.50;;;2.25;;
11653;SDS011;5883;48.818;9.114;2023-06-14T08:31:35;6.38;;;2.85;;
11653;SDS011;5883;48.818;9.114;2023-06-14T08:34:21;5.10;;;2.40;;
11653;SDS011;5883;48.818;9.114;2023-06-14T08:37:07;7.97;;;2.70;;
11653;SDS011;5883;48.818;9.114;2023-06-14T08:39:52;5.20;;;2.65;;
11653;SDS011;5883;48.818;9.114;2023-06-14T08:42:36;7.82;;;2.90;;
11653;SDS011;5883;48.818;9.114;2023-06-14T08:45:22;6.53;;;2.83;;
11653;SDS011;5883;48.818;9.114;2023-06-14T08:48:08;4.40;;;2.70;;
11653;SDS011;5883;48.818;9.114;2023-06-14T08:50:55;3.33;;;2.72;;
11653;SDS011;5883;48.818;9.114;2023-06-14T08:53:45;6.95;;;2.65;;
11653;SDS011;5883;48.818;9.114;2023-06-14T08:56:35;6.60;;;2.55;;
11653;SDS011;5883;48.818;9.114;2023-06-14T08:59:21;7.03;;;2.83;;
11653;SDS011;5883;48.818;9.114;2023-06-14T09:02:07;6.00;;;2.80;;
11653;SDS011;5883;48.818;9.114;2023-06-14T09:04:56;5.15;;;2.72;;
11653;SDS011;5883;48.818;9.114;2023-06-14T09:07:45;3.10;;;2.78;;
11653;SDS011;5883;48.818;9.114;2023-06-14T09:10:32;4.05;;;2.35;;
11653;SDS011;5883;48.818;9.114;2023-06-14T09:13:19;4.38;;;2.80;;
11653;SDS011;5883;48.818;9.114;2023-06-14T09:16:04;4.18;;;2.53;;
11653;SDS011;5883;48.818;9.114;2023-06-14T09:18:49;4.20;;;2.85;;
11653;SDS011;5883;48.818;9.114;2023-06-14T09:21:34;7.45;;;2.80;;
11653;SDS011;5883;48.818;9.114;2023-06-14T09:24:23;5.20;;;2.65;;
11653;SDS011;5883;48.818;9.114;2023-06-14T09:27:11;4.45;;;2.72;;
11653;SDS011;5883;48.818;9.114;2023-06-14T09:29:59;3.67;;;2.70;;
11653;SDS011;5883;48.818;9.114;2023-06-14T09:32:44;9.93;;;3.03;;
11653;SDS011;5883;48.818;9.114;2023-06-14T09:35:30;4.45;;;3.30;;
11653;SDS011;5883;48.818;9.114;2023-06-14T09:38:16;5.43;;;2.88;;
11653;SDS011;5883;48.818;9.114;2023-06-14T09:41:03;7.32;;;2.78;;
11653;SDS011;5883;48.818;9.114;2023-06-14T09:43:49;4.68;;;2.80;;
11653;SDS011;5883;48.818;9.114;2023-06-14T09:46:35;5.70;;;2.88;;
11653;SDS011;5883;48.818;9.114;2023-06-14T09:49:20;5.10;;;2.30;;
11653;SDS011;5883;48.818;9.114;2023-06-14T09:52:05;5.82;;;3.08;;
11653;SDS011;5883;48.818;9.114;2023-06-14T09:54:51;7.97;;;3.10;;
11653;SDS011;5883;48.818;9.114;2023-06-14T09:57:39;3.97;;;2.40;;
11653;SDS011;5883;48.818;9.114;2023-06-14T10:00:26;8.07;;;2.55;;
11653;SDS011;5883;48.818;9.114;2023-06-14T10:03:12;16.52;;;3.33;;
11653;SDS011;5883;48.818;9.114;2023-06-14T10:05:58;7.45;;;3.10;;
11653;SDS011;5883;48.818;9.114;2023-06-14T10:08:45;5.78;;;2.90;;
11653;SDS011;5883;48.818;9.114;2023-06-14T10:11:30;6.50;;;2.80;;
11653;SDS011;5883;48.818;9.114;2023-06-14T10:14:17;3.80;;;2.38;;
11653;SDS011;5883;48.818;9.114;2023-06-14T10:17:04;6.32;;;2.72;;
11653;SDS011;5883;48.818;9.114;2023-06-14T10:19:53;7.72;;;2.60;;
11653;SDS011;5883;48.818;9.114;2023-06-14T10:22:40;4.13;;;2.17;;
11653;SDS011;5883;48.818;9.114;2023-06-14T10:25:27;6.00;;;2.55;;
11653;SDS011;5883;48.818;9.114;2023-06-14T10:28:16;4.32;;;2.42;;
11653;SDS011;5883;48.818;9.114;2023-06-14T10:31:04;4.25;;;2.53;;
11653;SDS011;5883;48.818;9.114;2023-06-14T10:33:50;5.97;;;2.80;;
11653;SDS011;5883;48.818;9.114;2023-06-14T10:36:36;3.83;;;2.30;;
11653;SDS011;5883;48.818;9.114;2023-06-14T10:39:21;4.43;;;2.75;;
11653;SDS011;5883;48.818;9.114;2023-06-14T10:42:07;4.90;;;2.50;;
11653;SDS011;5883;48.818;9.114;2023-06-14T10:44:52;4.60;;;2.40;;
11653;SDS011;5883;48.818;9.114;2023-06-14T10:47:40;3.00;;;2.33;;
11653;SDS011;5883;48.818;9.114;2023-06-14T10:50:27;6.85;;;2.63;;
11653;SDS011;5883;48.818;9.114;2023-06-14T10:53:21;4.05;;;2.70;;
11653;SDS011;5883;48.818;9.114;2023-06-14T10:56:07;3.47;;;2.67;;
11653;SDS011;5883;48.818;9.114;2023-06-14T10:58:52;8.98;;;2.60;;
11653;SDS011;5883;48.818;9.114;2023-06-14T11:01:38;3.90;;;2.03;;
11653;SDS011;5883;48.818;9.114;2023-06-14T11:04:28;4.30;;;2.40;;
11653;SDS011;5883;48.818;9.114;2023-06-14T11:07:33;6.43;;;3.47;;
11653;SDS011;5883;48.818;9.114;2023-06-14T11:10:25;4.57;;;2.42;;
11653;SDS011;5883;48.818;9.114;2023-06-14T11:13:11;7.13;;;2.50;;
11653;SDS011;5883;48.818;9.114;2023-06-14T11:15:56;3.70;;;2.42;;
11653;SDS011;5883;48.818;9.114;2023-06-14T11:18:42;4.78;;;2.42;;
11653;SDS011;5883;48.818;9.114;2023-06-14T11:21:29;10.27;;;2.55;;
11653;SDS011;5883;48.818;9.114;2023-06-14T11:24:15;4.22;;;2.75;;
11653;SDS011;5883;48.818;9.114;2023-06-14T11:27:00;3.35;;;2.30;;
11653;SDS011;5883;48.818;9.114;2023-06-14T11:29:48;8.57;;;2.30;;
11653;SDS011;5883;48.818;9.114;2023-06-14T11:32:33;6.80;;;2.50;;
11653;SDS011;5883;48.818;9.114;2023-06-14T11:35:18;2.45;;;2.25;;
11653;SDS011;5883;48.818;9.114;2023-06-14T11:38:06;3.72;;;2.30;;
11653;SDS011;5883;48.818;9.114;2023-06-14T11:40:51;3.72;;;1.85;;
11653;SDS011;5883;48.818;9.114;2023-06-14T11:43:36;4.07;;;2.30;;
11653;SDS011;5883;48.818;9.114;2023-06-14T11:46:21;4.57;;;2.28;;
11653;SDS011;5883;48.818;9.114;2023-06-14T11:49:08;3.38;;;2.40;;
11653;SDS011;5883;48.818;9.114;2023-06-14T11:51:53;5.03;;;2.22;;
11653;SDS011;5883;48.818;9.114;2023-06-14T11:54:39;3.67;;;2.38;;
11653;SDS011;5883;48.818;9.114;2023-06-14T11:57:25;3.80;;;2.40;;
11653;SDS011;5883;48.818;9.114;2023-06-14T12:00:11;5.50;;;2.33;;
11653;SDS011;5883;48.818;9.114;2023-06-14T12:02:58;4.07;;;2.38;;
11653;SDS011;5883;48.818;9.114;2023-06-14T12:05:43;3.40;;;2.50;;
11653;SDS011;5883;48.818;9.114;2023-06-14T12:08:32;3.13;;;2.33;;
11653;SDS011;5883;48.818;9.114;2023-06-14T12:11:23;5.53;;;2.40;;
11653;SDS011;5883;48.818;9.114;2023-06-14T12:14:10;8.50;;;2.40;;
11653;SDS011;5883;48.818;9.114;2023-06-14T12:17:03;2.97;;;2.40;;
11653;SDS011;5883;48.818;9.114;2023-06-14T12:19:51;3.38;;;2.60;;
11653;SDS011;5883;48.818;9.114;2023-06-14T12:22:38;4.13;;;2.40;;
11653;SDS011;5883;48.818;9.114;2023-06-14T12:25:28;2.45;;;2.20;;
11653;SDS011;5883;48.818;9.114;2023-06-14T12:28:17;3.97;;;2.55;;
11653;SDS011;5883;48.818;9.114;2023-06-14T12:31:04;3.22;;;2.40;;
11653;SDS011;5883;48.818;9.114;2023-06-14T12:33:51;2.40;;;2.20;;
11653;SDS011;5883;48.818;9.114;2023-06-14T12:36:38;8.90;;;2.35;;
11653;SDS011;5883;48.818;9.114;2023-06-14T12:39:29;7.32;;;2.30;;
11653;SDS011;5883;48.818;9.114;2023-06-14T12:42:16;3.15;;;2.85;;
11653;SDS011;5883;48.818;9.114;2023-06-14T12:45:05;5.55;;;2.83;;
11653;SDS011;5883;48.818;9.114;2023-06-14T12:47:52;4.20;;;2.40;;
11653;SDS011;5883;48.818;9.114;2023-06-14T12:50:39;4.32;;;2.10;;
11653;SDS011;5883;48.818;9.114;2023-06-14T12:53:26;6.15;;;2.22;;
11653;SDS011;5883;48.818;9.114;2023-06-14T12:56:12;7.10;;;2.60;;
11653;SDS011;5883;48.818;9.114;2023-06-14T12:58:59;2.20;;;2.00;;
11653;SDS011;5883;48.818;9.114;2023-06-14T13:01:47;3.78;;;2.47;;
11653;SDS011;5883;48.818;9.114;2023-06-14T13:04:35;3.78;;;2.38;;
11653;SDS011;5883;48.818;9.114;2023-06-14T13:07:22;8.32;;;2.30;;
11653;SDS011;5883;48.818;9.114;2023-06-14T13:10:09;3.92;;;2.63;;
11653;SDS011;5883;48.818;9.114;2023-06-14T13:12:56;13.18;;;3.15;;
11653;SDS011;5883;48.818;9.114;2023-06-14T13:15:45;3.38;;;2.33;;
11653;SDS011;5883;48.818;9.114;2023-06-14T13:18:33;5.57;;;2.33;;
11653;SDS011;5883;48.818;9.114;2023-06-14T13:21:20;5.63;;;2.63;;
11653;SDS011;5883;48.818;9.114;2023-06-14T13:24:07;3.20;;;2.53;;
11653;SDS011;5883;48.818;9.114;2023-06-14T13:26:54;8.07;;;2.38;;
11653;SDS011;5883;48.818;9.114;2023-06-14T13:29:40;5.20;;;2.40;;
11653;SDS011;5883;48.818;9.114;2023-06-14T13:32:27;3.42;;;2.85;;
11653;SDS011;5883;48.818;9.114;2023-06-14T13:35:15;2.42;;;2.08;;
11653;SDS011;5883;48.818;9.114;2023-06-14T13:38:02;3.83;;;2.30;;
11653;SDS011;5883;48.818;9.114;2023-06-14T13:40:49;5.47;;;2.33;;
11653;SDS011;5883;48.818;9.114;2023-06-14T13:43:36;3.25;;;2.53;;
11653;SDS011;5883;48.818;9.114;2023-06-14T13:46:22;8.05;;;2.67;;
11653;SDS011;5883;48.818;9.114;2023-06-14T13:49:07;4.55;;;2.50;;
11653;SDS011;5883;48.818;9.114;2023-06-14T13:51:55;2.72;;;2.30;;
11653;SDS011;5883;48.818;9.114;2023-06-14T13:54:41;3.83;;;2.30;;
11653;SDS011;5883;48.818;9.114;2023-06-14T13:57:26;3.47;;;2.10;;
11653;SDS011;5883;48.818;9.114;2023-06-14T14:00:11;2.38;;;2.15;;
11653;SDS011;5883;48.818;9.114;2023-06-14T14:02:56;3.83;;;2.75;;
11653;SDS011;5883;48.818;9.114;2023-06-14T14:05:43;4.35;;;2.90;;
11653;SDS011;5883;48.818;9.114;2023-06-14T14:08:29;3.03;;;2.17;;
11653;SDS011;5883;48.818;9.114;2023-06-14T14:11:15;4.25;;;2.67;;
11653;SDS011;5883;48.818;9.114;2023-06-14T14:14:00;7.15;;;2.70;;
11653;SDS011;5883;48.818;9.114;2023-06-14T14:16:45;7.65;;;2.92;;
11653;SDS011;5883;48.818;9.114;2023-06-14T14:19:30;5.68;;;2.40;;
11653;SDS011;5883;48.818;9.114;2023-06-14T14:22:15;2.83;;;2.40;;
11653;SDS011;5883;48.818;9.114;2023-06-14T14:25:01;4.30;;;2.35;;
11653;SDS011;5883;48.818;9.114;2023-06-14T14:27:46;4.55;;;2.47;;
11653;SDS011;5883;48.818;9.114;2023-06-14T14:30:31;2.90;;;2.60;;
11653;SDS011;5883;48.818;9.114;2023-06-14T14:33:16;3.85;;;2.38;;
11653;SDS011;5883;48.818;9.114;2023-06-14T14:36:01;3.35;;;2.00;;
11653;SDS011;5883;48.818;9.114;2023-06-14T14:38:47;4.63;;;2.08;;
11653;SDS011;5883;48.818;9.114;2023-06-14T14:41:33;4.40;;;2.50;;
11653;SDS011;5883;48.818;9.114;2023-06-14T14:44:18;4.35;;;2.25;;
11653;SDS011;5883;48.818;9.114;2023-06-14T14:47:04;4.80;;;2.38;;
11653;SDS011;5883;48.818;9.114;2023-06-14T14:49:49;3.05;;;2.50;;
11653;SDS011;5883;48.818;9.114;2023-06-14T14:52:34;7.30;;;2.58;;
11653;SDS011;5883;48.818;9.114;2023-06-14T14:55:19;11.32;;;3.42;;
11653;SDS011;5883;48.818;9.114;2023-06-14T14:58:06;4.03;;;2.30;;
11653;SDS011;5883;48.818;9.114;2023-06-14T15:00:52;4.75;;;2.95;;
11653;SDS011;5883;48.818;9.114;2023-06-14T15:03:37;5.25;;;2.28;;
11653;SDS011;5883;48.818;9.114;2023-06-14T15:06:22;3.28;;;2.42;;
11653;SDS011;5883;48.818;9.114;2023-06-14T15:09:07;4.45;;;2.75;;
11653;SDS011;5883;48.818;9.114;2023-06-14T15:11:52;3.78;;;2.60;;
11653;SDS011;5883;48.818;9.114;2023-06-14T15:14:38;5.63;;;2.55;;
11653;SDS011;5883;48.818;9.114;2023-06-14T15:17:23;5.47;;;2.88;;
11653;SDS011;5883;48.818;9.114;2023-06-14T15:20:09;4.65;;;2.40;;
11653;SDS011;5883;48.818;9.114;2023-06-14T15:22:56;3.55;;;2.40;;
11653;SDS011;5883;48.818;9.114;2023-06-14T15:25:43;3.70;;;2.35;;
11653;SDS011;5883;48.818;9.114;2023-06-14T15:28:28;5.38;;;2.78;;
11653;SDS011;5883;48.818;9.114;2023-06-14T15:31:14;3.72;;;2.20;;
11653;SDS011;5883;48.818;9.114;2023-06-14T15:33:59;5.53;;;2.30;;
11653;SDS011;5883;48.818;9.114;2023-06-14T15:36:44;2.72;;;2.30;;
11653;SDS011;5883;48.818;9.114;2023-06-14T15:39:29;2.78;;;2.05;;
11653;SDS011;5883;48.818;9.114;2023-06-14T15:42:15;6.43;;;2.47;;
11653;SDS011;5883;48.818;9.114;2023-06-14T15:45:00;4.38;;;2.35;;
11653;SDS011;5883;48.818;9.114;2023-06-14T15:47:47;3.20;;;2.08;;
11653;SDS011;5883;48.818;9.114;2023-06-14T15:50:32;3.80;;;2.03;;
11653;SDS011;5883;48.818;9.114;2023-06-14T15:53:17;3.35;;;2.63;;
11653;SDS011;5883;48.818;9.114;2023-06-14T15:56:02;4.57;;;2.55;;
11653;SDS011;5883;48.818;9.114;2023-06-14T15:58:47;3.25;;;2.17;;
11653;SDS011;5883;48.818;9.114;2023-06-14T16:01:33;4.00;;;2.50;;
11653;SDS011;5883;48.818;9.114;2023-06-14T16:04:19;4.00;;;2.17;;
11653;SDS011;5883;48.818;9.114;2023-06-14T16:07:04;5.78;;;2.63;;
11653;SDS011;5883;48.818;9.114;2023-06-14T16:09:49;3.55;;;2.20;;
11653;SDS011;5883;48.818;9.114;2023-06-14T16:12:34;2.65;;;2.00;;
11653;SDS011;5883;48.818;9.114;2023-06-14T16:15:20;5.55;;;2.97;;
11653;SDS011;5883;48.818;9.114;2023-06-14T16:18:05;3.13;;;2.70;;
11653;SDS011;5883;48.818;9.114;2023-06-14T16:20:51;2.85;;;2.38;;
11653;SDS011;5883;48.818;9.114;2023-06-14T16:23:38;5.53;;;2.47;;
11653;SDS011;5883;48.818;9.114;2023-06-14T16:26:23;3.08;;;2.78;;
11653;SDS011;5883;48.818;9.114;2023-06-14T16:29:09;7.78;;;3.22;;
11653;SDS011;5883;48.818;9.114;2023-06-14T16:31:54;2.75;;;2.47;;
11653;SDS011;5883;48.818;9.114;2023-06-14T16:34:39;4.30;;;2.80;;
11653;SDS011;5883;48.818;9.114;2023-06-14T16:37:25;2.63;;;2.35;;
11653;SDS011;5883;48.818;9.114;2023-06-14T16:40:11;5.38;;;2.60;;
11653;SDS011;5883;48.818;9.114;2023-06-14T16:42:56;3.30;;;2.38;;
11653;SDS011;5883;48.818;9.114;2023-06-14T16:45:41;15.93;;;2.50;;
11653;SDS011;5883;48.818;9.114;2023-06-14T16:48:27;5.47;;;2.30;;
11653;SDS011;5883;48.818;9.114;2023-06-14T16:51:11;8.82;;;3.13;;
11653;SDS011;5883;48.818;9.114;2023-06-14T16:53:58;6.95;;;2.70;;